createdAt,value
2023-07-03T00:00:13.556Z,59.71
2023-07-03T00:05:36.785Z,54.66
2023-07-03T00:10:40.043Z,53.90
2023-07-03T00:15:43.312Z,54.26
2023-07-03T00:20:47.053Z,55.60
2023-07-03T00:25:51.351Z,56.91
2023-07-03T00:30:54.917Z,57.81
2023-07-03T00:35:58.403Z,58.34
2023-07-03T00:41:01.632Z,59.49
2023-07-03T00:46:04.832Z,59.93
2023-07-03T00:51:10.076Z,60.44
2023-07-03T00:56:13.583Z,60.97
2023-07-03T01:01:36.901Z,61.57
2023-07-03T01:06:48.578Z,62.74
2023-07-03T01:11:52.413Z,68.62
2023-07-03T01:16:57.913Z,69.34
2023-07-03T01:22:17.356Z,67.71
2023-07-03T01:27:24.294Z,65.43
2023-07-03T01:32:31.270Z,63.76
2023-07-03T01:37:38.768Z,62.12
2023-07-03T01:42:42.642Z,60.90
2023-07-03T01:47:46.175Z,59.90
2023-07-03T01:52:56.631Z,59.88
2023-07-03T01:58:22.882Z,59.17
2023-07-03T02:03:32.580Z,54.88
2023-07-03T02:08:36.827Z,54.79
2023-07-03T02:13:39.920Z,55.55
2023-07-03T02:18:49.580Z,56.65
2023-07-03T02:23:52.798Z,58.54
2023-07-03T02:28:56.120Z,60.40
2023-07-03T02:33:59.419Z,61.05
2023-07-03T02:39:03.230Z,61.46
2023-07-03T02:44:06.545Z,63.65
2023-07-03T02:49:11.049Z,69.13
2023-07-03T02:54:14.294Z,69.86
2023-07-03T02:59:17.622Z,67.27
2023-07-03T03:04:20.940Z,63.56
2023-07-03T03:09:24.737Z,63.23
2023-07-03T03:14:28.154Z,61.93
2023-07-03T03:19:31.597Z,60.82
2023-07-03T03:24:35.600Z,57.94
2023-07-03T03:29:39.850Z,55.46
2023-07-03T03:34:43.150Z,56.60
2023-07-03T03:39:46.483Z,56.69
2023-07-03T03:44:49.676Z,57.77
2023-07-03T03:49:54.638Z,58.83
2023-07-03T03:54:58.027Z,60.12
2023-07-03T04:00:01.370Z,60.76
2023-07-03T04:05:05.010Z,61.31
2023-07-03T04:10:09.633Z,61.41
2023-07-03T04:15:12.839Z,61.82
2023-07-03T04:20:16.272Z,65.00
2023-07-03T04:25:19.527Z,65.88
2023-07-03T04:30:22.862Z,60.87
2023-07-03T04:35:26.263Z,56.62
2023-07-03T04:40:31.077Z,57.61
2023-07-03T04:45:42.063Z,59.06
2023-07-03T04:50:50.936Z,59.52
2023-07-03T04:55:54.916Z,59.80
2023-07-03T05:00:58.775Z,60.11
2023-07-03T05:06:02.098Z,59.62
2023-07-03T05:11:05.302Z,59.75
2023-07-03T05:16:08.541Z,60.27
2023-07-03T05:21:12.854Z,59.94
2023-07-03T05:26:16.069Z,59.57
2023-07-03T05:31:23.831Z,59.22
2023-07-03T05:36:27.305Z,58.99
2023-07-03T05:41:30.562Z,58.76
2023-07-03T05:46:34.025Z,58.17
2023-07-03T05:51:37.464Z,57.98
2023-07-03T05:56:40.845Z,57.13
2023-07-03T06:01:46.661Z,56.51
2023-07-03T06:06:57.142Z,55.65
2023-07-03T06:12:00.927Z,55.07
2023-07-03T06:17:04.460Z,54.46
2023-07-03T06:22:07.695Z,54.05
2023-07-03T06:27:11.152Z,53.15
2023-07-03T06:32:14.670Z,52.65
2023-07-03T06:37:18.187Z,52.46
2023-07-03T06:42:21.598Z,52.62
2023-07-03T06:47:24.938Z,52.13
2023-07-03T06:52:28.327Z,51.31
2023-07-03T06:57:31.880Z,50.08
2023-07-03T07:02:35.662Z,49.15
2023-07-03T07:07:39.399Z,47.66
2023-07-03T07:12:42.591Z,48.41
2023-07-03T07:17:51.960Z,48.36
2023-07-03T07:22:56.184Z,47.73
2023-07-03T07:27:59.596Z,47.05
2023-07-03T07:33:02.963Z,46.40
2023-07-03T07:38:06.635Z,45.90
2023-07-03T07:43:10.273Z,45.43
2023-07-03T07:48:13.762Z,45.56
2023-07-03T07:53:17.190Z,44.99
2023-07-03T07:58:20.586Z,45.34
2023-07-03T08:03:23.940Z,44.76
2023-07-03T08:08:28.552Z,43.78
2023-07-03T08:13:33.837Z,44.08
2023-07-03T08:18:37.521Z,44.18
2023-07-03T08:23:40.831Z,43.78
2023-07-03T08:28:44.286Z,43.03
2023-07-03T08:33:47.785Z,42.22
2023-07-03T08:38:51.299Z,42.56
2023-07-03T08:43:59.722Z,42.20
2023-07-03T08:49:05.585Z,41.82
2023-07-03T08:54:22.428Z,42.33
2023-07-03T08:59:26.231Z,40.89
2023-07-03T09:04:36.267Z,42.28
2023-07-03T09:10:10.849Z,42.97
2023-07-03T09:15:17.467Z,43.13
2023-07-03T09:20:24.532Z,42.02
2023-07-03T09:25:45.599Z,41.11
2023-07-03T09:30:52.280Z,41.82
2023-07-03T09:35:57.565Z,42.24
2023-07-03T09:41:08.697Z,42.72
2023-07-03T09:46:15.556Z,42.03
2023-07-03T09:51:25.749Z,41.81
2023-07-03T09:56:31.533Z,41.92
2023-07-03T10:07:07.720Z,40.54
2023-07-03T10:12:26.254Z,39.46
2023-07-03T10:17:46.999Z,39.13
2023-07-03T10:22:56.539Z,38.79
2023-07-03T10:28:08.321Z,39.00
2023-07-03T10:33:16.225Z,38.79
2023-07-03T10:38:56.400Z,38.93
2023-07-03T10:44:12.642Z,39.64
2023-07-03T10:49:27.464Z,40.26
2023-07-03T10:55:16.787Z,40.87
2023-07-03T11:00:38.328Z,41.55
2023-07-03T11:05:50.200Z,41.38
2023-07-03T11:11:11.264Z,40.12
2023-07-03T11:16:16.097Z,39.68
2023-07-03T11:32:37.282Z,40.85
2023-07-03T11:47:54.702Z,41.37
2023-07-03T11:52:58.803Z,41.45
2023-07-03T11:58:20.155Z,40.86
2023-07-03T12:03:51.111Z,40.20
2023-07-03T12:09:10.341Z,40.00
2023-07-03T12:15:02.764Z,40.04
2023-07-03T12:20:20.289Z,39.83
2023-07-03T12:25:27.305Z,40.09
2023-07-03T12:30:32.391Z,40.57
2023-07-03T12:35:44.035Z,40.99
2023-07-03T12:40:49.048Z,41.49
2023-07-03T12:45:55.102Z,41.80
2023-07-03T12:51:01.611Z,41.30
2023-07-03T12:56:10.582Z,40.58
2023-07-03T13:01:15.027Z,39.05
2023-07-03T13:06:33.327Z,39.39
2023-07-03T13:11:45.320Z,39.92
2023-07-03T13:16:51.792Z,40.49
2023-07-03T13:21:55.842Z,40.87
2023-07-03T13:27:00.215Z,41.54
2023-07-03T13:32:18.286Z,41.54
2023-07-03T13:37:27.033Z,40.97
2023-07-03T13:42:31.718Z,39.66
2023-07-03T13:47:35.106Z,40.15
2023-07-03T13:52:38.693Z,40.57
2023-07-03T13:57:42.631Z,40.19
2023-07-03T14:02:48.978Z,40.21
2023-07-03T14:07:52.865Z,38.23
2023-07-03T14:12:56.240Z,37.29
2023-07-03T14:17:59.558Z,37.74
2023-07-03T14:23:05.552Z,38.20
2023-07-03T14:28:08.829Z,38.45
2023-07-03T14:33:12.262Z,38.73
2023-07-03T14:38:15.870Z,39.18
2023-07-03T14:43:19.218Z,39.76
2023-07-03T14:48:36.658Z,39.95
2023-07-03T14:53:40.355Z,40.02
2023-07-03T14:58:43.852Z,39.59
2023-07-03T15:03:48.707Z,38.68
2023-07-03T15:08:52.732Z,38.60
2023-07-03T15:13:56.472Z,38.67
2023-07-03T15:19:08.372Z,38.97
2023-07-03T15:24:14.537Z,38.82
2023-07-03T15:29:18.566Z,39.24
2023-07-03T15:34:24.587Z,39.26
2023-07-03T15:39:27.957Z,39.41
2023-07-03T15:44:31.902Z,39.75
2023-07-03T15:49:43.907Z,39.88
2023-07-03T15:54:52.446Z,38.49
2023-07-03T15:59:56.182Z,38.23
2023-07-03T16:04:59.885Z,38.52
2023-07-03T16:10:05.251Z,39.40
2023-07-03T16:15:10.128Z,39.88
2023-07-03T16:20:16.858Z,40.19
2023-07-03T16:25:26.126Z,40.69
2023-07-03T16:30:31.286Z,41.06
2023-07-03T16:35:37.259Z,40.90
2023-07-03T16:40:43.045Z,41.15
2023-07-03T16:45:46.845Z,41.42
2023-07-03T16:50:56.514Z,41.61
2023-07-03T16:56:02.996Z,41.80
2023-07-03T17:01:09.454Z,41.95
2023-07-03T17:06:22.311Z,41.71
2023-07-03T17:11:29.327Z,41.62
2023-07-03T17:16:34.107Z,41.46
2023-07-03T17:21:38.747Z,41.34
2023-07-03T17:26:42.211Z,41.23
2023-07-03T17:31:45.575Z,41.46
2023-07-03T17:36:49.132Z,41.31
2023-07-03T17:41:54.507Z,41.25
2023-07-03T17:46:58.634Z,41.21
2023-07-03T17:52:03.198Z,41.06
2023-07-03T17:57:07.298Z,40.93
2023-07-03T18:02:12.351Z,40.74
2023-07-03T18:07:16.604Z,40.64
2023-07-03T18:12:20.209Z,40.67
2023-07-03T18:17:25.178Z,40.69
2023-07-03T18:22:28.469Z,41.00
2023-07-03T18:27:32.902Z,41.19
2023-07-03T18:32:36.312Z,41.61
2023-07-03T18:37:39.845Z,42.18
2023-07-03T18:42:43.603Z,42.79
2023-07-03T18:47:47.017Z,43.24
2023-07-03T18:52:50.907Z,43.66
2023-07-03T18:57:54.427Z,44.22
2023-07-03T19:02:58.487Z,44.46
2023-07-03T19:08:02.800Z,44.88
2023-07-03T19:13:08.962Z,45.16
2023-07-03T19:18:13.405Z,45.41
2023-07-03T19:23:21.719Z,45.76
2023-07-03T19:28:27.450Z,46.21
2023-07-03T19:33:31.661Z,46.53
2023-07-03T19:38:37.154Z,46.68
2023-07-03T19:43:41.545Z,46.66
2023-07-03T19:48:44.936Z,46.89
2023-07-03T19:53:50.316Z,47.12
2023-07-03T19:58:54.018Z,47.53
2023-07-03T20:03:57.676Z,47.89
2023-07-03T20:09:01.260Z,48.27
2023-07-03T20:14:05.373Z,48.33
2023-07-03T20:19:08.718Z,48.21
2023-07-03T20:24:14.796Z,48.33
2023-07-03T20:29:18.413Z,48.67
2023-07-03T20:34:22.627Z,48.68
2023-07-03T20:39:26.788Z,48.64
2023-07-03T20:44:30.474Z,49.15
2023-07-03T20:49:35.227Z,49.38
2023-07-03T20:54:44.411Z,49.82
2023-07-03T20:59:51.881Z,50.20
2023-07-03T21:04:56.249Z,50.94
2023-07-03T21:09:59.651Z,51.38
2023-07-03T21:15:03.551Z,51.70
2023-07-03T21:20:08.646Z,51.70
2023-07-03T21:25:12.009Z,51.63
2023-07-03T21:30:15.699Z,51.72
2023-07-03T21:35:18.940Z,52.01
2023-07-03T21:40:22.159Z,53.05
2023-07-03T21:45:25.675Z,53.66
2023-07-03T21:50:29.089Z,54.01
2023-07-03T21:55:32.702Z,54.34
2023-07-03T22:00:35.910Z,54.94
2023-07-03T22:05:39.221Z,55.09
2023-07-03T22:10:42.533Z,55.63
2023-07-03T22:15:45.895Z,55.56
2023-07-03T22:20:55.512Z,55.52
2023-07-03T22:26:00.581Z,55.64
2023-07-03T22:31:04.124Z,55.10
2023-07-03T22:36:11.377Z,55.29
2023-07-03T22:41:17.259Z,55.26
2023-07-03T22:46:20.698Z,55.79
2023-07-03T22:51:24.075Z,56.17
2023-07-03T22:56:29.128Z,56.39
2023-07-03T23:01:32.440Z,56.71
2023-07-03T23:06:35.994Z,57.31
2023-07-03T23:11:40.496Z,57.63
2023-07-03T23:16:45.032Z,56.79
2023-07-03T23:21:52.264Z,56.94
2023-07-03T23:26:56.910Z,56.97
2023-07-03T23:32:00.120Z,57.66
2023-07-03T23:37:03.413Z,58.48
2023-07-03T23:42:08.861Z,58.86
2023-07-03T23:47:12.104Z,58.62
2023-07-03T23:52:15.606Z,57.95
2023-07-03T23:57:18.910Z,58.24
